METAR Data
IDs: Format: Raw Decoded Include TAF

Data at: 0542 UTC 07 Dec 2022

KMEH 060256Z AUTO 00000KT 4SM BR BKN001 M06/M07 A2990 RMK AO2 SLP165 I1000 I3001 T10611072 53002
KMEH 060247Z AUTO 00000KT 1 3/4SM BR OVC001 M06/M07 A2990 RMK AO2 VIS 3/4V5 I1000 T10611072
KMEH 060217Z AUTO 00000KT 10SM BKN001 M05/M07 A2988 RMK AO2 T10501067
KMEH 060156Z AUTO 00000KT 10SM SCT002 M04/M06 A2988 RMK AO2 SLP156 I1001 T10391056
KMEH 060136Z AUTO 00000KT 10SM SCT002 M04/M05 A2989 RMK AO2 I1000 T10391050
KMEH 060056Z AUTO 00000KT 10SM CLR M03/M04 A2989 RMK AO2 SLP158 I1000 T10281039
KMEH 052356Z AUTO 00000KT 10SM CLR M01/M02 A2989 RMK AO2 SLP155 T10111022 10028 21033 53004
KMEH 052256Z AUTO 00000KT 10SM CLR 00/M03 A2988 RMK AO2 SLP150 T00001028
KMEH 052156Z AUTO VRB03KT 10SM OVC047 02/M02 A2988 RMK AO2 SLP144 T00221022
KMEH 052056Z AUTO 00000KT 10SM BKN047 01/M01 A2988 RMK AO2 SLP144 T00111006 58013
KMEH 051956Z AUTO 00000KT 10SM CLR 01/M02 A2989 RMK AO2 SLP151 T00111022
KMEH 051856Z AUTO 00000KT 10SM BKN039 M01/M03 A2991 RMK AO2 SLP159 T10061028
KMEH 051756Z AUTO 00000KT 6SM BR OVC038 M03/M05 A2992 RMK AO2 SLP165 T10331050 11033 21078 51001
KMEH 051656Z AUTO 00000KT 10SM OVC037 M05/M07 A2992 RMK AO2 SLP168 T10501067
KMEH 051556Z AUTO 00000KT 10SM OVC038 M07/M08 A2992 RMK AO2 SLP171 T10671078
KMEH 051456Z AUTO 00000KT 10SM OVC038 M07/M09 A2992 RMK AO2 SLP170 T10721089 55001
KMEH 051356Z AUTO 00000KT 10SM BKN039 M07/M08 A2991 RMK AO2 SLP169 T10721083
KMEH 051256Z AUTO 00000KT 10SM OVC037 M07/M08 A2992 RMK AO2 SLP170 T10721083
KMEH 051156Z AUTO 00000KT 10SM BKN060 OVC090 M07/M08 A2992 RMK AO2 SLP172 60000 70005 T10721083 11050 21072 50000
KMEH 051056Z AUTO 00000KT 10SM BKN060 OVC075 M07/M08 A2993 RMK AO2 SLP174 T10671078
KMEH 050956Z AUTO 00000KT 10SM BKN045 OVC060 M06/M07 A2992 RMK AO2 SNE13 SLP169 P0000 T10611072
KMEH 050856Z AUTO 00000KT 5SM -SN BR OVC036 M05/M07 A2992 RMK AO2 SNB26 SLP160 P0000 60000 T10501067 50001
KMEH 050756Z AUTO 00000KT 10SM FEW025 BKN060 OVC070 M06/M07 A2993 RMK AO2 SLP164 T10561067 400061061
KMEH 050743Z AUTO 00000KT 10SM FEW026 BKN060 OVC070 M06/M07 A2992 RMK AO2 T10561067
KMEH 050656Z AUTO 00000KT 10SM BKN026 OVC050 M05/M07 A2992 RMK AO2 SLP161 T10501067
KMEH 050556Z AUTO 00000KT 10SM BKN023 OVC043 M05/M07 A2992 RMK AO2 SLP163 60002 T10501067 11050 21056 53008
KMEH 050505Z AUTO 00000KT 10SM BKN028 OVC041 M05/M07 A2991 RMK AO2 T10501067
KMEH 050456Z AUTO 00000KT 10SM BKN030 OVC041 M05/M07 A2990 RMK AO2 SLP157 T10501067
KMEH 050356Z AUTO 00000KT 10SM BKN032 OVC042 M05/M07 A2990 RMK AO2 UPB04E13 SLP155 P0000 T10501067
KMEH 050256Z AUTO 00000KT 9SM OVC035 M06/M07 A2989 RMK AO2 SNE42 SLP155 P0000 60002 T10561072 53006
KMEH 050156Z AUTO 00000KT 3SM -SN BR FEW019 SCT024 OVC037 M06/M07 A2987 RMK AO2 SLP149 P0001 T10561072
KMEH 050103Z AUTO 00000KT 2 1/2SM -SN BR OVC028 M06/M07 A2987 RMK AO2 P0000 T10561072
KMEH 050056Z AUTO 00000KT 3SM -SN BR FEW025 OVC030 M06/M07 A2987 RMK AO2 SNE29B36 SLP149 P0001 T10561072
KMEH 050032Z AUTO 00000KT 9SM FEW020 SCT029 OVC044 M06/M07 A2987 RMK AO2 SNE29 P0001 T10561072
KMEH 050025Z AUTO 00000KT 5SM -SN BR FEW015 BKN029 OVC046 M06/M07 A2987 RMK AO2 P0001 T10561072
KMEH 050010Z AUTO 00000KT 3SM -SN BR FEW015 SCT020 OVC030 M06/M07 A2987 RMK AO2 P0001 T10561072
KMEH 042356Z AUTO 00000KT 1SM -SN BR FEW015 OVC022 M06/M08 A2987 RMK AO2 SLP148 P0001 60002 T10561078 10006 21061 51008
KMEH 042334Z AUTO 00000KT 1 1/4SM -SN BR FEW009 SCT018 OVC026 M06/M07 A2986 RMK AO2 P0001 T10561072
KMEH 042321Z AUTO 00000KT 1 3/4SM -SN BR SCT009 BKN030 OVC041 M06/M08 A2986 RMK AO2 P0000 T10561078
KMEH 042315Z AUTO 00000KT 2 1/2SM -SN BR BKN009 BKN028 OVC043 M06/M08 A2985 RMK AO2 P0000 T10561078
KMEH 042309Z AUTO 00000KT 4SM -SN BR BKN010 BKN043 OVC060 M06/M08 A2985 RMK AO2 P0000 T10611078
KMEH 042256Z AUTO VRB03KT 8SM -SN SCT010 BKN034 OVC070 M06/M08 A2985 RMK AO2 SLP146 P0001 T10611078
KMEH 042247Z AUTO 00000KT 3SM -SN BR FEW011 BKN031 OVC070 M06/M08 A2985 RMK AO2 P0001 T10611078
KMEH 042237Z AUTO 27003KT 1SM -SN BR BKN021 BKN027 OVC039 M06/M08 A2985 RMK AO2 P0001 T10611078
KMEH 042225Z AUTO 27004KT 1/2SM SN FZFG BKN017 BKN025 OVC035 M06/M07 A2985 RMK AO2 P0001 T10561072
KMEH 042218Z AUTO VRB03KT 1SM -SN BR BKN019 BKN025 OVC035 M06/M07 A2985 RMK AO2 P0000 T10561072
KMEH 042211Z AUTO VRB03KT 1 3/4SM -SN BR FEW016 BKN030 OVC035 M05/M07 A2985 RMK AO2 P0000 T10501067
KMEH 042156Z AUTO VRB04KT 6SM -SN BR FEW016 BKN039 OVC050 M04/M06 A2984 RMK AO2 SNB24 SLP138 P0000 T10391056
KMEH 042056Z AUTO VRB03KT 10SM OVC037 01/M03 A2982 RMK AO2 SLP124 60000 T00061033 58013
KMEH 041956Z AUTO 00000KT 10SM BKN041 OVC085 00/M03 A2983 RMK AO2 SNB31E40 SLP129 P0000 T00001033
KMEH 041856Z AUTO 00000KT 10SM BKN041 BKN050 OVC075 M01/M04 A2985 RMK AO2 SLP137 T10111039
KMEH 041756Z AUTO 00000KT 10SM FEW018 BKN100 OVC110 M02/M04 A2986 RMK AO2 SLP141 60001 T10171044 11011 21028 55012
KMEH 041656Z AUTO 00000KT 10SM FEW055 OVC100 M02/M04 A2983 RMK AO2 SNE31 SLP130 P0001 T10171044
KMEH 041629Z AUTO VRB03KT 5SM -SN BR SCT016 BKN065 OVC110 M02/M04 A2985 RMK AO2 P0001 T10171039
KMEH 041559Z AUTO 3/4SM -SN BR BKN029 OVC049 M02/M04 A2986 RMK AO2 P0000 T10221044
KMEH 041556Z AUTO 00000KT 1SM -SN BR BKN034 OVC049 M02/M04 A2986 RMK AO2 SNB23 SLP142 P0000 T10221044
KMEH 041456Z AUTO 00000KT 10SM OVC055 M03/M04 A2990 RMK AO2 SNE04 SLP157 P0000 60000 T10281044 55012
KMEH 041405Z AUTO VRB03KT 9SM SCT039 BKN070 OVC090 M03/M06 A2987 RMK AO2 SNE04 P0000 T10281056
KMEH 041356Z AUTO 5SM -SN BR BKN025 OVC070 M03/M05 A2988 RMK AO2 SLP150 P0000 T10281050
KMEH 041346Z AUTO 00000KT 2SM -SN BR OVC029 M03/M05 A2989 RMK AO2 P0000 T10281050
KMEH 041337Z AUTO 1 3/4SM -SN OVC031 M03/M06 A2990 RMK AO2 P0000 T10281056
KMEH 041256Z AUTO 6SM -SN BKN031 OVC075 M03/M07 A2993 RMK AO2 SNB23 SLP165 P0000 T10281067
KMEH 041239Z AUTO 2SM -SN BKN026 OVC070 M03/M06 A2994 RMK AO2 SNB23 P0000 T10281061
KMEH 041231Z AUTO 00000KT 1 3/4SM -SN BKN033 OVC070 M02/M06 A2995 RMK AO2 SNB23 P0000 T10221061
KMEH 041156Z AUTO 00000KT 10SM FEW080 OVC110 M03/M08 A2994 RMK AO2 SLP169 T10281078 11028 21050 58022
KMEH 041056Z AUTO 00000KT 10SM FEW120 M04/M07 A2997 RMK AO2 SLP178 T10441067
KMEH 040956Z AUTO 00000KT 10SM CLR M04/M07 A3001 RMK AO2 SLP195 T10441067
KMEH 040856Z AUTO 00000KT 10SM CLR M04/M08 A3001 RMK AO2 SLP194 T10391078 56019
KMEH 040756Z AUTO 00000KT 10SM CLR M04/M09 A3004 RMK AO2 SLP202 T10391089 410111078
KMEH 040656Z AUTO 00000KT 10SM CLR M04/M09 A3004 RMK AO2 SLP208 T10441089
KMEH 040556Z AUTO 00000KT 10SM CLR M04/M08 A3008 RMK AO2 SLP220 T10391083 11028 21050 58007
KMEH 040456Z AUTO 00000KT 10SM CLR M04/M09 A3009 RMK AO2 SLP229 T10391089
KMEH 040356Z AUTO 00000KT 10SM CLR M04/M08 A3009 RMK AO2 SLP228 T10391083
KMEH 040256Z AUTO 00000KT 10SM CLR M04/M09 A3010 RMK AO2 SLP232 T10391089 58004
KMEH 040156Z AUTO 00000KT 10SM CLR M04/M08 A3012 RMK AO2 SLP238 T10441078
KMEH 040056Z AUTO 00000KT 10SM CLR M04/M08 A3011 RMK AO2 SLP235 T10391078
KMEH 032356Z AUTO 00000KT 10SM CLR M03/M07 A3011 RMK AO2 SLP234 T10331072 11011 21039 55000
KMEH 032256Z AUTO 00000KT 10SM CLR M02/M07 A3011 RMK AO2 SLP228 T10171072
KMEH 032156Z AUTO 00000KT 10SM CLR M02/M08 A3011 RMK AO2 SLP230 T10221078
KMEH 032056Z AUTO 00000KT 10SM CLR M02/M08 A3011 RMK AO2 SLP233 T10171078 55006
KMEH 031956Z AUTO 00000KT 10SM CLR M02/M08 A3011 RMK AO2 SLP232 T10221083
KMEH 031856Z AUTO VRB03KT 10SM CLR M03/M08 A3013 RMK AO2 SLP241 T10331083
KMEH 031756Z AUTO 00000KT 10SM CLR M04/M09 A3013 RMK AO2 SLP243 T10391089 11039 21078 53013
KMEH 031656Z AUTO 00000KT 10SM CLR M06/M10 A3012 RMK AO2 SLP240 T10611100
KMEH 031556Z AUTO 00000KT 10SM CLR M07/M10 A3010 RMK AO2 SLP236 T10671100
KMEH 031456Z AUTO 00000KT 10SM CLR M07/M10 A3009 RMK AO2 SLP234 T10721100 53008
KMEH 031356Z AUTO 00000KT 10SM CLR M07/M10 A3008 RMK AO2 SLP229 T10721100
KMEH 031256Z AUTO 00000KT 10SM CLR M06/M09 A3007 RMK AO2 SLP224 T10611094
KMEH 031156Z AUTO 00000KT 10SM CLR M06/M09 A3006 RMK AO2 SLP220 60000 70002 T10561094 11056 21067 50004
KMEH 031056Z AUTO 00000KT 10SM CLR M06/M09 A3007 RMK AO2 SLP220 T10561094
KMEH 030956Z AUTO 00000KT 6SM HZ CLR M06/M09 A3007 RMK AO2 SNE0857 SLP220 P0000 T10561094
KMEH 030856Z AUTO 00000KT 6SM -SN CLR M06/M09 A3005 RMK AO2 SNB15E20B47 SLP214 P0000 60000 T10611094 50001
KMEH 030756Z AUTO 00000KT 8SM CLR M06/M09 A3006 RMK AO2 SLP216 T10611094 410331083
KMEH 030656Z AUTO 00000KT 10SM CLR M07/M09 A3007 RMK AO2 SLP222 T10671094
KMEH 030556Z AUTO 00000KT 10SM CLR M07/M09 A3005 RMK AO2 SLP216 T10671094 11061 21078 58001
KMEH 030456Z AUTO 00000KT 10SM CLR M07/M09 A3006 RMK AO2 SLP225 T10671094
KMEH 030356Z AUTO 00000KT 10SM CLR M07/M09 A3006 RMK AO2 SLP223 T10721094
KMEH 030256Z AUTO 00000KT 10SM CLR M08/M10 A3005 RMK AO2 SLP219 T10781100 51003
KMEH 030156Z AUTO 00000KT 10SM CLR M07/M10 A3005 RMK AO2 SLP219 T10721100
KMEH 030056Z AUTO 00000KT 10SM CLR M07/M09 A3004 RMK AO2 SLP214 T10671094
KMEH 022356Z AUTO 00000KT 10SM CLR M06/M09 A3004 RMK AO2 SLP212 I6002 T10611089 11033 21061 58004
KMEH 022256Z AUTO 00000KT 10SM CLR M04/M08 A3005 RMK AO2 SLP214 T10441083
KMEH 022156Z AUTO 00000KT 9SM SCT110 M04/M07 A3005 RMK AO2 SLP211 I1002 T10391072
KMEH 022056Z AUTO 00000KT 10SM FEW100 SCT120 M04/M07 A3005 RMK AO2 SLP214 T10391072 58006
KMEH 021956Z AUTO 00000KT 10SM CLR M04/M07 A3007 RMK AO2 SLP219 T10441072
KMEH 021856Z AUTO 00000KT 10SM CLR M04/M08 A3008 RMK AO2 SLP222 T10441078
KMEH 021756Z AUTO 00000KT 10SM CLR M06/M08 A3007 RMK AO2 SLP223 60002 T10611083 11056 21083 51023
KMEH 021656Z AUTO 00000KT 10SM CLR M08/M10 A3005 RMK AO2 SLP219 T10831100
KMEH 021556Z AUTO 00000KT 10SM CLR M08/M09 A3002 RMK AO2 SNE22 SLP208 P0001 T10781094
KMEH 021527Z AUTO 00000KT 9SM SCT018 BKN040 M07/M08 A3001 RMK AO2 SNE22 P0001 T10721083
KMEH 021514Z AUTO 00000KT 4SM -SN BR BKN016 BKN023 OVC042 M07/M08 A3001 RMK AO2 P0001 T10671078
KMEH 021459Z AUTO 00000KT 1SM -SN BR BKN009 OVC023 M06/M07 A3000 RMK AO2 P0000 T10561072
KMEH 021416Z AUTO 00000KT 6SM -SN BR BKN026 BKN031 OVC042 M06/M07 A2999 RMK AO2 P0000 T10611072
KMEH 021356Z AUTO 00000KT 8SM -SN BKN030 OVC041 M06/M07 A2997 RMK AO2 SNB08 SLP189 P0000 T10611072
KMEH 021256Z AUTO 00000KT 10SM BKN019 OVC023 M06/M07 A2994 RMK AO2 SLP177 T10611072
KMEH 021156Z AUTO 00000KT 10SM BKN016 OVC022 M06/M07 A2991 RMK AO2 SNE47 SLP164 P0000 60001 70028 T10561072 11044 21056 53014
KMEH 021056Z AUTO 00000KT 8SM -SN OVC018 M06/M07 A2988 RMK AO2 SLP152 P0000 T10561072
KMEH 020956Z AUTO 00000KT 4SM -SN BR FEW013 BKN018 OVC029 M06/M07 A2986 RMK AO2 SLP146 P0000 T10561072
KMEH 020944Z AUTO 00000KT 5SM -SN BR BKN013 BKN021 OVC034 M06/M07 A2986 RMK AO2 P0000 T10561072
KMEH 020937Z AUTO 00000KT 5SM -SN BR SCT013 OVC032 M06/M07 A2986 RMK AO2 P0000 T10561072
KMEH 020856Z AUTO 00000KT 6SM -SN BR BKN013 OVC033 M06/M07 A2983 RMK AO2 SLP133 P0001 60001 T10561072 51024
KMEH 020822Z AUTO 00000KT 5SM -SN BR BKN014 OVC023 M05/M07 A2982 RMK AO2 P0001 T10501072
KMEH 020756Z AUTO 00000KT 9SM -SN BKN016 OVC021 M05/M07 A2981 RMK AO2 SLP124 P0000 T10501072 410061056
KMEH 020656Z AUTO 00000KT 9SM -SN BKN021 OVC025 M04/M06 A2978 RMK AO2 SNE26B47 SLP114 P0000 T10441061
KMEH 020631Z AUTO 00000KT 9SM FEW008 BKN023 OVC032 M05/M07 A2976 RMK AO2 SNE26 P0000 T10501067
KMEH 020612Z AUTO 00000KT 4SM -SN BR SCT011 BKN025 OVC033 M05/M07 A2975 RMK AO2 P0000 T10501067
KMEH 020603Z AUTO 00000KT 8SM -SN SCT011 OVC031 M05/M07 A2975 RMK AO2 P0000 T10501067
KMEH 020556Z AUTO 00000KT 5SM -SN BR SCT010 BKN027 OVC033 M05/M07 A2975 RMK AO2 SNE37B44 SLP106 P0001 60003 I6001 T10501067 11039 21056 53024
KMEH 020547Z AUTO 00000KT 8SM -SN FEW012 OVC031 M05/M07 A2974 RMK AO2 SNE37B44 P0001 T10501067